sensor_id;sensor_type;location;lat;lon;timestamp;pressure;altitude;pressure_sealevel;temperature;humidity
55171;BME280;41060;47.510;8.680;2023-04-24T00:01:10;96250.91;;;15.52;50.04
55171;BME280;41060;47.510;8.680;2023-04-24T00:03:38;96248.53;;;15.26;51.05
55171;BME280;41060;47.510;8.680;2023-04-24T00:06:07;96255.28;;;15.45;50.24
55171;BME280;41060;47.510;8.680;2023-04-24T00:08:34;96256.78;;;15.47;49.24
55171;BME280;41060;47.510;8.680;2023-04-24T00:11:01;96252.41;;;15.54;48.54
55171;BME280;41060;47.510;8.680;2023-04-24T00:13:28;96256.09;;;15.45;48.85
55171;BME280;41060;47.510;8.680;2023-04-24T00:15:55;96254.31;;;15.29;48.91
55171;BME280;41060;47.510;8.680;2023-04-24T00:18:22;96246.00;;;15.32;48.74
55171;BME280;41060;47.510;8.680;2023-04-24T00:20:48;96251.81;;;15.36;48.07
55171;BME280;41060;47.510;8.680;2023-04-24T00:23:16;96253.94;;;15.49;47.48
55171;BME280;41060;47.510;8.680;2023-04-24T00:25:44;96262.56;;;15.51;47.36
55171;BME280;41060;47.510;8.680;2023-04-24T00:28:10;96251.00;;;15.36;47.94
55171;BME280;41060;47.510;8.680;2023-04-24T00:30:37;96269.88;;;15.18;48.65
55171;BME280;41060;47.510;8.680;2023-04-24T00:33:04;96268.38;;;14.99;49.07
55171;BME280;41060;47.510;8.680;2023-04-24T00:35:30;96261.44;;;14.74;49.39
55171;BME280;41060;47.510;8.680;2023-04-24T00:38:00;96226.47;;;14.69;48.81
55171;BME280;41060;47.510;8.680;2023-04-24T00:40:28;96265.72;;;14.99;48.67
55171;BME280;41060;47.510;8.680;2023-04-24T00:42:55;96256.06;;;14.98;48.88
55171;BME280;41060;47.510;8.680;2023-04-24T00:45:22;96254.69;;;15.10;48.31
55171;BME280;41060;47.510;8.680;2023-04-24T00:47:49;96253.34;;;15.06;48.49
55171;BME280;41060;47.510;8.680;2023-04-24T00:50:18;96251.44;;;14.84;48.34
55171;BME280;41060;47.510;8.680;2023-04-24T00:52:45;96258.09;;;14.80;48.60
55171;BME280;41060;47.510;8.680;2023-04-24T00:55:12;96258.41;;;14.93;48.27
55171;BME280;41060;47.510;8.680;2023-04-24T00:57:40;96256.28;;;14.56;49.17
55171;BME280;41060;47.510;8.680;2023-04-24T01:00:08;96250.94;;;14.72;48.79
55171;BME280;41060;47.510;8.680;2023-04-24T01:02:38;96249.94;;;14.73;48.67
55171;BME280;41060;47.510;8.680;2023-04-24T01:05:09;96198.19;;;14.51;48.50
55171;BME280;41060;47.510;8.680;2023-04-24T01:07:38;96251.63;;;14.58;48.77
55171;BME280;41060;47.510;8.680;2023-04-24T01:10:06;96241.28;;;14.55;48.85
55171;BME280;41060;47.510;8.680;2023-04-24T01:12:33;96246.63;;;14.31;48.84
55171;BME280;41060;47.510;8.680;2023-04-24T01:15:01;96242.47;;;14.44;49.17
55171;BME280;41060;47.510;8.680;2023-04-24T01:17:30;96252.13;;;14.45;49.00
55171;BME280;41060;47.510;8.680;2023-04-24T01:19:58;96257.59;;;14.11;49.57
55171;BME280;41060;47.510;8.680;2023-04-24T01:22:27;96244.63;;;14.16;49.70
55171;BME280;41060;47.510;8.680;2023-04-24T01:24:53;96252.38;;;14.10;49.58
55171;BME280;41060;47.510;8.680;2023-04-24T01:27:20;96248.94;;;14.17;49.15
55171;BME280;41060;47.510;8.680;2023-04-24T01:29:47;96251.97;;;14.23;48.65
55171;BME280;41060;47.510;8.680;2023-04-24T01:32:14;96250.28;;;14.13;48.39
55171;BME280;41060;47.510;8.680;2023-04-24T01:34:42;96246.59;;;14.06;47.88
55171;BME280;41060;47.510;8.680;2023-04-24T01:37:09;96262.59;;;14.14;47.98
55171;BME280;41060;47.510;8.680;2023-04-24T01:39:37;96261.88;;;14.04;48.14
55171;BME280;41060;47.510;8.680;2023-04-24T01:42:04;96270.75;;;14.21;48.06
55171;BME280;41060;47.510;8.680;2023-04-24T01:44:33;96270.38;;;14.08;48.64
55171;BME280;41060;47.510;8.680;2023-04-24T01:47:00;96264.44;;;14.14;49.35
55171;BME280;41060;47.510;8.680;2023-04-24T01:49:28;96263.91;;;14.18;49.02
55171;BME280;41060;47.510;8.680;2023-04-24T01:51:56;96259.94;;;14.14;49.05
55171;BME280;41060;47.510;8.680;2023-04-24T01:54:22;96262.38;;;14.00;49.11
55171;BME280;41060;47.510;8.680;2023-04-24T01:56:50;96263.91;;;14.10;49.23
55171;BME280;41060;47.510;8.680;2023-04-24T01:59:17;96268.09;;;14.21;48.83
55171;BME280;41060;47.510;8.680;2023-04-24T02:01:45;96270.75;;;14.29;48.89
55171;BME280;41060;47.510;8.680;2023-04-24T02:04:11;96283.41;;;14.27;49.23
55171;BME280;41060;47.510;8.680;2023-04-24T02:06:39;96266.59;;;14.35;49.09
55171;BME280;41060;47.510;8.680;2023-04-24T02:09:06;96270.09;;;14.51;49.14
55171;BME280;41060;47.510;8.680;2023-04-24T02:11:33;96264.94;;;14.42;48.58
55171;BME280;41060;47.510;8.680;2023-04-24T02:14:01;96274.75;;;14.25;48.83
55171;BME280;41060;47.510;8.680;2023-04-24T02:16:28;96261.25;;;14.10;49.07
55171;BME280;41060;47.510;8.680;2023-04-24T02:18:57;96259.59;;;14.26;48.63
55171;BME280;41060;47.510;8.680;2023-04-24T02:21:24;96266.16;;;13.89;49.00
55171;BME280;41060;47.510;8.680;2023-04-24T02:23:50;96268.53;;;14.00;48.79
55171;BME280;41060;47.510;8.680;2023-04-24T02:26:17;96259.72;;;14.00;48.54
55171;BME280;41060;47.510;8.680;2023-04-24T02:28:44;96261.72;;;14.06;48.12
55171;BME280;41060;47.510;8.680;2023-04-24T02:31:12;96266.22;;;14.05;48.40
55171;BME280;41060;47.510;8.680;2023-04-24T02:33:39;96268.97;;;13.71;49.38
55171;BME280;41060;47.510;8.680;2023-04-24T02:36:06;96263.19;;;13.92;49.43
55171;BME280;41060;47.510;8.680;2023-04-24T02:38:32;96258.84;;;13.83;48.90
55171;BME280;41060;47.510;8.680;2023-04-24T02:40:59;96238.34;;;13.67;49.27
55171;BME280;41060;47.510;8.680;2023-04-24T02:43:26;96264.13;;;13.75;49.42
55171;BME280;41060;47.510;8.680;2023-04-24T02:45:53;96264.44;;;13.56;49.42
55171;BME280;41060;47.510;8.680;2023-04-24T02:48:20;96265.28;;;13.64;49.41
55171;BME280;41060;47.510;8.680;2023-04-24T02:50:47;96257.72;;;13.35;49.48
55171;BME280;41060;47.510;8.680;2023-04-24T02:53:14;96260.00;;;13.30;50.25
55171;BME280;41060;47.510;8.680;2023-04-24T02:55:41;96221.66;;;13.41;49.56
55171;BME280;41060;47.510;8.680;2023-04-24T02:58:08;96251.19;;;13.72;49.22
55171;BME280;41060;47.510;8.680;2023-04-24T03:00:35;96241.56;;;13.87;48.98
55171;BME280;41060;47.510;8.680;2023-04-24T03:03:02;96244.03;;;13.89;48.77
55171;BME280;41060;47.510;8.680;2023-04-24T03:05:31;96234.75;;;13.93;48.44
55171;BME280;41060;47.510;8.680;2023-04-24T03:07:57;96247.22;;;13.92;48.39
55171;BME280;41060;47.510;8.680;2023-04-24T03:10:24;96249.34;;;13.64;49.17
55171;BME280;41060;47.510;8.680;2023-04-24T03:12:51;96250.00;;;13.74;48.63
55171;BME280;41060;47.510;8.680;2023-04-24T03:15:18;96254.25;;;13.51;48.92
55171;BME280;41060;47.510;8.680;2023-04-24T03:17:47;96247.47;;;13.57;48.91
55171;BME280;41060;47.510;8.680;2023-04-24T03:20:15;96242.78;;;13.43;49.14
55171;BME280;41060;47.510;8.680;2023-04-24T03:22:43;96235.56;;;13.27;49.19
55171;BME280;41060;47.510;8.680;2023-04-24T03:25:09;96247.25;;;13.08;49.63
55171;BME280;41060;47.510;8.680;2023-04-24T03:27:36;96252.44;;;12.92;49.87
55171;BME280;41060;47.510;8.680;2023-04-24T03:30:05;96238.22;;;13.27;50.11
55171;BME280;41060;47.510;8.680;2023-04-24T03:32:32;96244.97;;;13.55;49.32
55171;BME280;41060;47.510;8.680;2023-04-24T03:34:59;96249.31;;;13.56;49.33
55171;BME280;41060;47.510;8.680;2023-04-24T03:37:26;96253.53;;;13.33;49.64
55171;BME280;41060;47.510;8.680;2023-04-24T03:39:53;96205.66;;;12.99;49.65
55171;BME280;41060;47.510;8.680;2023-04-24T03:42:21;96240.50;;;13.22;49.75
55171;BME280;41060;47.510;8.680;2023-04-24T03:44:47;96242.56;;;13.36;49.34
55171;BME280;41060;47.510;8.680;2023-04-24T03:47:13;96249.47;;;13.55;48.97
55171;BME280;41060;47.510;8.680;2023-04-24T03:49:41;96253.09;;;13.54;48.72
55171;BME280;41060;47.510;8.680;2023-04-24T03:52:07;96254.22;;;13.35;49.26
55171;BME280;41060;47.510;8.680;2023-04-24T03:54:34;96252.06;;;13.38;49.12
55171;BME280;41060;47.510;8.680;2023-04-24T03:57:02;96255.78;;;13.62;49.21
55171;BME280;41060;47.510;8.680;2023-04-24T03:59:29;96249.34;;;13.64;48.65
55171;BME280;41060;47.510;8.680;2023-04-24T04:01:56;96252.25;;;13.45;48.55
55171;BME280;41060;47.510;8.680;2023-04-24T04:04:26;96240.16;;;13.59;47.88
55171;BME280;41060;47.510;8.680;2023-04-24T04:06:53;96241.34;;;13.64;48.41
55171;BME280;41060;47.510;8.680;2023-04-24T04:09:19;96242.03;;;13.74;48.00
55171;BME280;41060;47.510;8.680;2023-04-24T04:11:46;96241.38;;;13.80;47.58
55171;BME280;41060;47.510;8.680;2023-04-24T04:14:14;96237.03;;;13.71;47.81
55171;BME280;41060;47.510;8.680;2023-04-24T04:16:41;96236.66;;;13.50;48.67
55171;BME280;41060;47.510;8.680;2023-04-24T04:19:08;96245.22;;;13.78;47.87
55171;BME280;41060;47.510;8.680;2023-04-24T04:21:35;96247.06;;;13.86;47.70
55171;BME280;41060;47.510;8.680;2023-04-24T04:24:01;96254.41;;;13.41;48.12
55171;BME280;41060;47.510;8.680;2023-04-24T04:26:28;96254.97;;;13.61;47.84
55171;BME280;41060;47.510;8.680;2023-04-24T04:28:57;96169.91;;;13.19;47.50
55171;BME280;41060;47.510;8.680;2023-04-24T04:31:27;96271.47;;;13.81;47.29
55171;BME280;41060;47.510;8.680;2023-04-24T04:33:54;96272.09;;;13.67;47.98
55171;BME280;41060;47.510;8.680;2023-04-24T04:36:20;96282.84;;;13.49;47.93
55171;BME280;41060;47.510;8.680;2023-04-24T04:38:49;96293.53;;;13.57;48.02
55171;BME280;41060;47.510;8.680;2023-04-24T04:41:16;96296.97;;;13.16;48.24
55171;BME280;41060;47.510;8.680;2023-04-24T04:43:45;96307.19;;;12.85;48.88
55171;BME280;41060;47.510;8.680;2023-04-24T04:46:11;96309.00;;;12.84;50.20
55171;BME280;41060;47.510;8.680;2023-04-24T04:48:40;96323.34;;;12.65;50.28
55171;BME280;41060;47.510;8.680;2023-04-24T04:51:06;96326.00;;;12.48;51.42
55171;BME280;41060;47.510;8.680;2023-04-24T04:53:33;96336.78;;;12.29;51.99
55171;BME280;41060;47.510;8.680;2023-04-24T04:56:00;96342.63;;;12.50;51.69
55171;BME280;41060;47.510;8.680;2023-04-24T04:58:27;96347.41;;;12.46;52.26
55171;BME280;41060;47.510;8.680;2023-04-24T05:00:54;96349.66;;;12.06;52.82
55171;BME280;41060;47.510;8.680;2023-04-24T05:03:21;96352.06;;;11.99;53.12
55171;BME280;41060;47.510;8.680;2023-04-24T05:05:48;96288.50;;;11.80;52.95
55171;BME280;41060;47.510;8.680;2023-04-24T05:08:15;96353.00;;;12.43;52.36
55171;BME280;41060;47.510;8.680;2023-04-24T05:10:42;96353.84;;;12.26;52.60
55171;BME280;41060;47.510;8.680;2023-04-24T05:13:08;96355.75;;;12.16;52.74
55171;BME280;41060;47.510;8.680;2023-04-24T05:15:35;96361.84;;;11.99;52.82
55171;BME280;41060;47.510;8.680;2023-04-24T05:18:04;96357.66;;;11.96;52.60
55171;BME280;41060;47.510;8.680;2023-04-24T05:20:30;96355.50;;;12.27;52.34
55171;BME280;41060;47.510;8.680;2023-04-24T05:23:01;96363.09;;;12.22;52.21
55171;BME280;41060;47.510;8.680;2023-04-24T05:25:28;96363.59;;;12.25;51.85
55171;BME280;41060;47.510;8.680;2023-04-24T05:27:57;96369.00;;;12.16;52.33
55171;BME280;41060;47.510;8.680;2023-04-24T05:30:23;96364.84;;;12.31;51.47
55171;BME280;41060;47.510;8.680;2023-04-24T05:32:51;96375.38;;;12.23;52.32
55171;BME280;41060;47.510;8.680;2023-04-24T05:35:17;96388.50;;;12.24;52.14
55171;BME280;41060;47.510;8.680;2023-04-24T05:37:44;96391.16;;;12.24;51.00
55171;BME280;41060;47.510;8.680;2023-04-24T05:40:13;96383.72;;;12.28;51.67
55171;BME280;41060;47.510;8.680;2023-04-24T05:42:39;96387.25;;;12.19;51.88
55171;BME280;41060;47.510;8.680;2023-04-24T05:45:07;96396.91;;;12.20;51.77
55171;BME280;41060;47.510;8.680;2023-04-24T05:47:35;96393.03;;;12.14;51.98
55171;BME280;41060;47.510;8.680;2023-04-24T05:50:02;96386.22;;;12.47;51.26
55171;BME280;41060;47.510;8.680;2023-04-24T05:52:28;96395.09;;;12.20;52.13
55171;BME280;41060;47.510;8.680;2023-04-24T05:54:55;96397.28;;;11.70;52.98
55171;BME280;41060;47.510;8.680;2023-04-24T05:57:23;96400.28;;;11.58;53.59
55171;BME280;41060;47.510;8.680;2023-04-24T05:59:49;96399.44;;;11.84;53.58
55171;BME280;41060;47.510;8.680;2023-04-24T06:02:17;96409.69;;;12.07;52.59
55171;BME280;41060;47.510;8.680;2023-04-24T06:04:43;96414.81;;;11.91;52.96
55171;BME280;41060;47.510;8.680;2023-04-24T06:07:10;96420.50;;;12.23;51.95
55171;BME280;41060;47.510;8.680;2023-04-24T06:09:38;96424.47;;;12.37;51.76
55171;BME280;41060;47.510;8.680;2023-04-24T06:12:04;96420.00;;;12.73;51.28
55171;BME280;41060;47.510;8.680;2023-04-24T06:14:34;96404.72;;;12.21;51.08
55171;BME280;41060;47.510;8.680;2023-04-24T06:17:01;96414.97;;;12.16;52.34
55171;BME280;41060;47.510;8.680;2023-04-24T06:19:28;96396.78;;;12.57;50.88
55171;BME280;41060;47.510;8.680;2023-04-24T06:21:55;96411.38;;;13.06;49.94
55171;BME280;41060;47.510;8.680;2023-04-24T06:24:22;96414.25;;;13.13;50.20
55171;BME280;41060;47.510;8.680;2023-04-24T06:26:48;96423.25;;;13.20;49.65
55171;BME280;41060;47.510;8.680;2023-04-24T06:29:15;96415.00;;;13.05;49.14
55171;BME280;41060;47.510;8.680;2023-04-24T06:31:43;96427.47;;;12.24;50.01
55171;BME280;41060;47.510;8.680;2023-04-24T06:34:10;96409.00;;;12.68;50.37
55171;BME280;41060;47.510;8.680;2023-04-24T06:36:36;96418.56;;;12.96;49.71
55171;BME280;41060;47.510;8.680;2023-04-24T06:39:04;96422.66;;;13.08;49.40
55171;BME280;41060;47.510;8.680;2023-04-24T06:41:30;96414.06;;;13.14;49.05
55171;BME280;41060;47.510;8.680;2023-04-24T06:43:57;96420.19;;;13.32;48.76
55171;BME280;41060;47.510;8.680;2023-04-24T06:46:25;96426.50;;;13.57;48.41
55171;BME280;41060;47.510;8.680;2023-04-24T06:48:54;96422.13;;;13.82;47.74
55171;BME280;41060;47.510;8.680;2023-04-24T06:51:22;96427.31;;;14.17;46.95
55171;BME280;41060;47.510;8.680;2023-04-24T06:53:50;96427.13;;;14.11;47.20
55171;BME280;41060;47.510;8.680;2023-04-24T06:56:17;96426.19;;;14.28;46.95
55171;BME280;41060;47.510;8.680;2023-04-24T06:58:43;96438.88;;;14.00;46.83
55171;BME280;41060;47.510;8.680;2023-04-24T07:01:11;96425.88;;;13.97;47.76
55171;BME280;41060;47.510;8.680;2023-04-24T07:03:38;96438.59;;;14.11;47.01
55171;BME280;41060;47.510;8.680;2023-04-24T07:06:06;96431.69;;;14.27;47.22
55171;BME280;41060;47.510;8.680;2023-04-24T07:08:33;96433.81;;;14.15;47.22
55171;BME280;41060;47.510;8.680;2023-04-24T07:11:01;96436.56;;;14.39;47.49
55171;BME280;41060;47.510;8.680;2023-04-24T07:13:27;96440.38;;;14.37;46.73
55171;BME280;41060;47.510;8.680;2023-04-24T07:15:54;96437.59;;;13.78;47.59
55171;BME280;41060;47.510;8.680;2023-04-24T07:18:23;96435.22;;;14.01;47.48
55171;BME280;41060;47.510;8.680;2023-04-24T07:20:52;96449.28;;;13.86;47.15
55171;BME280;41060;47.510;8.680;2023-04-24T07:23:20;96441.72;;;13.47;49.22
55171;BME280;41060;47.510;8.680;2023-04-24T07:25:47;96441.56;;;13.74;48.06
55171;BME280;41060;47.510;8.680;2023-04-24T07:28:14;96447.97;;;13.90;47.71
55171;BME280;41060;47.510;8.680;2023-04-24T07:30:41;96447.34;;;14.04;47.89
55171;BME280;41060;47.510;8.680;2023-04-24T07:33:07;96438.31;;;13.89;47.10
55171;BME280;41060;47.510;8.680;2023-04-24T07:35:36;96447.66;;;13.67;47.85
55171;BME280;41060;47.510;8.680;2023-04-24T07:38:03;96450.75;;;13.80;47.71
55171;BME280;41060;47.510;8.680;2023-04-24T07:40:32;96446.31;;;14.23;47.72
55171;BME280;41060;47.510;8.680;2023-04-24T07:42:58;96452.44;;;13.89;47.60
55171;BME280;41060;47.510;8.680;2023-04-24T07:45:26;96447.00;;;13.65;47.58
55171;BME280;41060;47.510;8.680;2023-04-24T07:47:53;96458.09;;;13.34;48.72
55171;BME280;41060;47.510;8.680;2023-04-24T07:50:20;96470.25;;;13.01;49.45
55171;BME280;41060;47.510;8.680;2023-04-24T07:52:47;96505.59;;;12.84;52.36
55171;BME280;41060;47.510;8.680;2023-04-24T07:55:16;96512.72;;;12.66;50.78
55171;BME280;41060;47.510;8.680;2023-04-24T07:57:43;96511.66;;;12.77;52.07
55171;BME280;41060;47.510;8.680;2023-04-24T08:00:11;96504.31;;;11.79;51.05
55171;BME280;41060;47.510;8.680;2023-04-24T08:02:38;96520.38;;;11.77;52.52
55171;BME280;41060;47.510;8.680;2023-04-24T08:05:06;96525.09;;;11.83;52.48
55171;BME280;41060;47.510;8.680;2023-04-24T08:07:33;96521.53;;;11.56;50.94
55171;BME280;41060;47.510;8.680;2023-04-24T08:10:00;96523.81;;;11.97;50.55
55171;BME280;41060;47.510;8.680;2023-04-24T08:12:27;96534.59;;;11.76;50.17
55171;BME280;41060;47.510;8.680;2023-04-24T08:14:56;96539.94;;;11.57;48.57
55171;BME280;41060;47.510;8.680;2023-04-24T08:17:23;96518.69;;;11.76;48.90
55171;BME280;41060;47.510;8.680;2023-04-24T08:19:50;96553.91;;;11.40;47.73
55171;BME280;41060;47.510;8.680;2023-04-24T08:22:19;96556.97;;;11.64;49.86
55171;BME280;41060;47.510;8.680;2023-04-24T08:24:45;96545.63;;;11.91;47.30
55171;BME280;41060;47.510;8.680;2023-04-24T08:27:12;96552.88;;;11.99;47.30
55171;BME280;41060;47.510;8.680;2023-04-24T08:29:39;96580.69;;;11.37;45.82
55171;BME280;41060;47.510;8.680;2023-04-24T08:32:07;96569.22;;;11.75;46.27
55171;BME280;41060;47.510;8.680;2023-04-24T08:34:33;96559.22;;;11.40;44.12
55171;BME280;41060;47.510;8.680;2023-04-24T08:37:00;96575.41;;;11.56;45.85
55171;BME280;41060;47.510;8.680;2023-04-24T08:39:27;96575.50;;;11.93;45.02
55171;BME280;41060;47.510;8.680;2023-04-24T08:41:55;96578.53;;;12.08;44.12
55171;BME280;41060;47.510;8.680;2023-04-24T08:44:22;96579.63;;;12.15;43.24
55171;BME280;41060;47.510;8.680;2023-04-24T08:46:49;96578.44;;;11.71;44.09
55171;BME280;41060;47.510;8.680;2023-04-24T08:49:17;96587.09;;;11.92;44.55
55171;BME280;41060;47.510;8.680;2023-04-24T08:51:45;96580.03;;;12.20;44.27
55171;BME280;41060;47.510;8.680;2023-04-24T08:54:13;96593.09;;;11.75;44.55
55171;BME280;41060;47.510;8.680;2023-04-24T08:56:40;96576.59;;;12.00;45.54
55171;BME280;41060;47.510;8.680;2023-04-24T08:59:10;96594.41;;;12.17;45.65
55171;BME280;41060;47.510;8.680;2023-04-24T09:01:37;96563.06;;;12.68;44.36
55171;BME280;41060;47.510;8.680;2023-04-24T09:04:07;96571.53;;;12.71;44.19
55171;BME280;41060;47.510;8.680;2023-04-24T09:06:37;96584.94;;;13.24;44.12
55171;BME280;41060;47.510;8.680;2023-04-24T09:09:03;96578.09;;;13.22;43.58
55171;BME280;41060;47.510;8.680;2023-04-24T09:11:31;96565.13;;;13.36;45.59
55171;BME280;41060;47.510;8.680;2023-04-24T09:13:58;96587.78;;;13.40;44.36
55171;BME280;41060;47.510;8.680;2023-04-24T09:16:26;96593.69;;;13.52;43.96
55171;BME280;41060;47.510;8.680;2023-04-24T09:18:55;96595.41;;;13.43;44.89
55171;BME280;41060;47.510;8.680;2023-04-24T09:21:22;96596.13;;;13.46;44.07
55171;BME280;41060;47.510;8.680;2023-04-24T09:24:03;96590.41;;;13.58;44.23
55171;BME280;41060;47.510;8.680;2023-04-24T09:26:31;96581.44;;;13.77;43.73
55171;BME280;41060;47.510;8.680;2023-04-24T09:28:59;96588.00;;;13.65;43.63
55171;BME280;41060;47.510;8.680;2023-04-24T09:31:27;96584.03;;;13.16;43.73
55171;BME280;41060;47.510;8.680;2023-04-24T09:33:56;96605.91;;;13.00;43.57
55171;BME280;41060;47.510;8.680;2023-04-24T09:36:30;96594.22;;;13.38;44.00
55171;BME280;41060;47.510;8.680;2023-04-24T09:39:04;96592.03;;;13.33;42.89
55171;BME280;41060;47.510;8.680;2023-04-24T09:41:32;96571.75;;;13.32;44.23
55171;BME280;41060;47.510;8.680;2023-04-24T09:44:10;96593.38;;;13.37;43.95
55171;BME280;41060;47.510;8.680;2023-04-24T09:46:37;96591.09;;;13.25;42.81
55171;BME280;41060;47.510;8.680;2023-04-24T09:49:08;96586.38;;;13.36;43.29
55171;BME280;41060;47.510;8.680;2023-04-24T09:51:37;96580.09;;;12.92;42.97
55171;BME280;41060;47.510;8.680;2023-04-24T09:54:14;96594.50;;;13.17;43.05
55171;BME280;41060;47.510;8.680;2023-04-24T09:56:43;96593.69;;;13.17;43.18
55171;BME280;41060;47.510;8.680;2023-04-24T09:59:11;96602.19;;;13.20;42.93
55171;BME280;41060;47.510;8.680;2023-04-24T10:01:37;96603.94;;;13.02;42.67
55171;BME280;41060;47.510;8.680;2023-04-24T10:04:15;96597.78;;;12.47;42.28
55171;BME280;41060;47.510;8.680;2023-04-24T10:06:42;96604.19;;;12.91;43.05
55171;BME280;41060;47.510;8.680;2023-04-24T10:09:09;96612.84;;;13.38;42.41
55171;BME280;41060;47.510;8.680;2023-04-24T10:11:41;96614.09;;;13.16;41.72
55171;BME280;41060;47.510;8.680;2023-04-24T10:14:09;96597.84;;;13.37;41.25
55171;BME280;41060;47.510;8.680;2023-04-24T10:16:37;96614.56;;;13.12;40.92
55171;BME280;41060;47.510;8.680;2023-04-24T10:19:04;96610.91;;;13.66;40.98
55171;BME280;41060;47.510;8.680;2023-04-24T10:21:32;96608.03;;;13.59;41.95
55171;BME280;41060;47.510;8.680;2023-04-24T10:23:58;96604.59;;;13.85;43.95
55171;BME280;41060;47.510;8.680;2023-04-24T10:26:29;96602.09;;;14.52;42.73
55171;BME280;41060;47.510;8.680;2023-04-24T10:28:58;96602.44;;;14.57;41.12
55171;BME280;41060;47.510;8.680;2023-04-24T10:31:25;96604.09;;;14.58;40.22
55171;BME280;41060;47.510;8.680;2023-04-24T10:33:52;96593.81;;;15.06;41.88
55171;BME280;41060;47.510;8.680;2023-04-24T10:36:22;96592.69;;;15.16;40.68
55171;BME280;41060;47.510;8.680;2023-04-24T10:38:54;96594.13;;;15.03;39.33
55171;BME280;41060;47.510;8.680;2023-04-24T10:41:25;96601.28;;;15.02;38.28
55171;BME280;41060;47.510;8.680;2023-04-24T10:44:05;96552.34;;;14.61;39.76
55171;BME280;41060;47.510;8.680;2023-04-24T10:46:33;96603.44;;;14.99;38.44
55171;BME280;41060;47.510;8.680;2023-04-24T10:49:03;96611.81;;;14.70;37.56
55171;BME280;41060;47.510;8.680;2023-04-24T10:51:47;96595.38;;;14.82;38.34
55171;BME280;41060;47.510;8.680;2023-04-24T10:54:28;96595.34;;;14.40;37.80
55171;BME280;41060;47.510;8.680;2023-04-24T10:57:25;96612.78;;;14.09;38.95
55171;BME280;41060;47.510;8.680;2023-04-24T11:02:48;96613.44;;;14.29;37.46
55171;BME280;41060;47.510;8.680;2023-04-24T11:05:16;96604.59;;;14.62;39.18
55171;BME280;41060;47.510;8.680;2023-04-24T11:10:40;96600.47;;;15.10;38.79
55171;BME280;41060;47.510;8.680;2023-04-24T11:13:06;96610.03;;;15.28;39.56
55171;BME280;41060;47.510;8.680;2023-04-24T11:15:33;96614.53;;;15.20;37.92
55171;BME280;41060;47.510;8.680;2023-04-24T11:18:02;96608.28;;;14.61;39.25
55171;BME280;41060;47.510;8.680;2023-04-24T11:20:30;96611.97;;;15.10;39.35
55171;BME280;41060;47.510;8.680;2023-04-24T11:23:03;96629.88;;;15.26;38.01
55171;BME280;41060;47.510;8.680;2023-04-24T11:25:32;96618.53;;;15.24;37.80
55171;BME280;41060;47.510;8.680;2023-04-24T11:28:14;96621.03;;;15.17;37.41
55171;BME280;41060;47.510;8.680;2023-04-24T11:30:42;96621.88;;;15.26;38.23
55171;BME280;41060;47.510;8.680;2023-04-24T11:33:09;96614.78;;;15.09;37.56
55171;BME280;41060;47.510;8.680;2023-04-24T11:35:39;96632.63;;;15.08;38.13
55171;BME280;41060;47.510;8.680;2023-04-24T11:38:07;96625.59;;;14.99;38.15
55171;BME280;41060;47.510;8.680;2023-04-24T11:40:34;96630.91;;;14.91;37.98
55171;BME280;41060;47.510;8.680;2023-04-24T11:43:00;96626.31;;;14.67;38.68
55171;BME280;41060;47.510;8.680;2023-04-24T11:45:28;96636.06;;;14.92;37.79
55171;BME280;41060;47.510;8.680;2023-04-24T11:47:54;96645.03;;;14.91;37.60
55171;BME280;41060;47.510;8.680;2023-04-24T11:50:25;96647.16;;;14.80;37.49
55171;BME280;41060;47.510;8.680;2023-04-24T11:52:53;96633.59;;;14.65;36.86
55171;BME280;41060;47.510;8.680;2023-04-24T11:55:26;96645.03;;;14.83;37.05
55171;BME280;41060;47.510;8.680;2023-04-24T11:57:55;96636.38;;;14.55;36.96
55171;BME280;41060;47.510;8.680;2023-04-24T12:00:24;96636.72;;;14.86;37.19
55171;BME280;41060;47.510;8.680;2023-04-24T12:02:51;96628.09;;;14.58;38.29
55171;BME280;41060;47.510;8.680;2023-04-24T12:05:24;96634.53;;;15.24;38.17
55171;BME280;41060;47.510;8.680;2023-04-24T12:07:51;96646.41;;;14.95;38.44
55171;BME280;41060;47.510;8.680;2023-04-24T12:10:20;96643.00;;;14.77;37.63
55171;BME280;41060;47.510;8.680;2023-04-24T12:12:47;96656.31;;;14.77;37.59
55171;BME280;41060;47.510;8.680;2023-04-24T12:15:16;96645.56;;;14.95;37.06
55171;BME280;41060;47.510;8.680;2023-04-24T12:17:43;96647.69;;;14.83;36.26
55171;BME280;41060;47.510;8.680;2023-04-24T12:20:11;96635.44;;;14.65;37.11
55171;BME280;41060;47.510;8.680;2023-04-24T12:22:47;96637.25;;;14.64;36.76
55171;BME280;41060;47.510;8.680;2023-04-24T12:25:17;96631.44;;;15.03;35.76
55171;BME280;41060;47.510;8.680;2023-04-24T12:27:44;96628.41;;;15.31;37.04
55171;BME280;41060;47.510;8.680;2023-04-24T12:30:12;96627.44;;;15.57;34.23
55171;BME280;41060;47.510;8.680;2023-04-24T12:32:44;96635.59;;;14.97;35.96
55171;BME280;41060;47.510;8.680;2023-04-24T12:35:12;96628.72;;;15.37;35.35
55171;BME280;41060;47.510;8.680;2023-04-24T12:37:38;96637.72;;;15.27;34.12
55171;BME280;41060;47.510;8.680;2023-04-24T12:40:10;96626.84;;;15.13;34.97
55171;BME280;41060;47.510;8.680;2023-04-24T12:42:42;96628.88;;;15.19;35.27
55171;BME280;41060;47.510;8.680;2023-04-24T12:45:10;96616.41;;;15.52;33.68
55171;BME280;41060;47.510;8.680;2023-04-24T12:47:38;96623.31;;;15.87;34.53
55171;BME280;41060;47.510;8.680;2023-04-24T12:50:07;96631.59;;;15.59;35.87
55171;BME280;41060;47.510;8.680;2023-04-24T12:52:34;96615.94;;;15.81;35.56
55171;BME280;41060;47.510;8.680;2023-04-24T12:55:01;96591.41;;;16.18;35.74
55171;BME280;41060;47.510;8.680;2023-04-24T12:57:30;96608.53;;;16.56;34.50
55171;BME280;41060;47.510;8.680;2023-04-24T12:59:58;96608.50;;;16.64;33.85
55171;BME280;41060;47.510;8.680;2023-04-24T13:02:26;96607.25;;;16.43;35.25
55171;BME280;41060;47.510;8.680;2023-04-24T13:04:54;96609.78;;;16.29;34.82
55171;BME280;41060;47.510;8.680;2023-04-24T13:07:21;96601.22;;;16.49;33.98
55171;BME280;41060;47.510;8.680;2023-04-24T13:09:49;96607.78;;;16.39;34.80